sensor_id;sensor_type;location;lat;lon;timestamp;P1;durP1;ratioP1;P2;durP2;ratioP2
55146;SDS011;41039;49.830;23.988;2024-02-04T00:00:30;2.43;;;1.60;;
55146;SDS011;41039;49.830;23.988;2024-02-04T00:02:56;2.60;;;1.80;;
55146;SDS011;41039;49.830;23.988;2024-02-04T00:05:21;4.97;;;1.90;;
55146;SDS011;41039;49.830;23.988;2024-02-04T00:07:46;3.25;;;1.95;;
55146;SDS011;41039;49.830;23.988;2024-02-04T00:10:12;2.95;;;1.65;;
55146;SDS011;41039;49.830;23.988;2024-02-04T00:12:37;3.35;;;1.83;;
55146;SDS011;41039;49.830;23.988;2024-02-04T00:15:04;2.70;;;1.67;;
55146;SDS011;41039;49.830;23.988;2024-02-04T00:17:29;2.97;;;1.80;;
55146;SDS011;41039;49.830;23.988;2024-02-04T00:19:56;2.60;;;1.73;;
55146;SDS011;41039;49.830;23.988;2024-02-04T00:22:22;2.33;;;1.60;;
55146;SDS011;41039;49.830;23.988;2024-02-04T00:24:47;2.78;;;1.67;;
55146;SDS011;41039;49.830;23.988;2024-02-04T00:27:12;2.67;;;1.83;;
55146;SDS011;41039;49.830;23.988;2024-02-04T00:29:37;2.75;;;1.60;;
55146;SDS011;41039;49.830;23.988;2024-02-04T00:32:03;3.13;;;1.83;;
55146;SDS011;41039;49.830;23.988;2024-02-04T00:34:28;3.55;;;1.73;;
55146;SDS011;41039;49.830;23.988;2024-02-04T00:36:53;3.10;;;1.87;;
55146;SDS011;41039;49.830;23.988;2024-02-04T00:39:18;2.28;;;1.27;;
55146;SDS011;41039;49.830;23.988;2024-02-04T00:41:43;3.57;;;1.60;;
55146;SDS011;41039;49.830;23.988;2024-02-04T00:44:09;3.30;;;1.63;;
55146;SDS011;41039;49.830;23.988;2024-02-04T00:46:34;3.60;;;1.77;;
55146;SDS011;41039;49.830;23.988;2024-02-04T00:48:59;2.20;;;1.40;;
55146;SDS011;41039;49.830;23.988;2024-02-04T00:51:24;2.27;;;1.27;;
55146;SDS011;41039;49.830;23.988;2024-02-04T00:53:50;2.03;;;1.17;;
55146;SDS011;41039;49.830;23.988;2024-02-04T00:56:15;2.63;;;1.33;;
55146;SDS011;41039;49.830;23.988;2024-02-04T00:58:40;2.75;;;1.42;;
55146;SDS011;41039;49.830;23.988;2024-02-04T01:01:05;2.27;;;1.30;;
55146;SDS011;41039;49.830;23.988;2024-02-04T01:03:31;3.15;;;1.70;;
55146;SDS011;41039;49.830;23.988;2024-02-04T01:05:56;2.65;;;1.35;;
55146;SDS011;41039;49.830;23.988;2024-02-04T01:08:22;3.08;;;1.42;;
55146;SDS011;41039;49.830;23.988;2024-02-04T01:10:47;2.72;;;1.50;;
55146;SDS011;41039;49.830;23.988;2024-02-04T01:13:12;3.08;;;1.70;;
55146;SDS011;41039;49.830;23.988;2024-02-04T01:15:38;2.40;;;1.60;;
55146;SDS011;41039;49.830;23.988;2024-02-04T01:18:03;2.90;;;1.30;;
55146;SDS011;41039;49.830;23.988;2024-02-04T01:20:28;2.90;;;1.42;;
55146;SDS011;41039;49.830;23.988;2024-02-04T01:22:53;2.83;;;1.50;;
55146;SDS011;41039;49.830;23.988;2024-02-04T01:25:19;2.93;;;1.60;;
55146;SDS011;41039;49.830;23.988;2024-02-04T01:27:44;2.92;;;1.65;;
55146;SDS011;41039;49.830;23.988;2024-02-04T01:30:09;1.90;;;1.33;;
55146;SDS011;41039;49.830;23.988;2024-02-04T01:32:34;3.03;;;1.88;;
55146;SDS011;41039;49.830;23.988;2024-02-04T01:35:00;2.70;;;1.40;;
55146;SDS011;41039;49.830;23.988;2024-02-04T01:37:25;3.33;;;1.70;;
55146;SDS011;41039;49.830;23.988;2024-02-04T01:39:50;2.50;;;1.27;;
55146;SDS011;41039;49.830;23.988;2024-02-04T01:42:15;2.40;;;1.70;;
55146;SDS011;41039;49.830;23.988;2024-02-04T01:44:40;3.40;;;2.00;;
55146;SDS011;41039;49.830;23.988;2024-02-04T01:47:07;4.20;;;1.77;;
55146;SDS011;41039;49.830;23.988;2024-02-04T01:49:32;2.40;;;1.50;;
55146;SDS011;41039;49.830;23.988;2024-02-04T01:51:57;2.67;;;1.50;;
55146;SDS011;41039;49.830;23.988;2024-02-04T01:54:23;2.67;;;1.65;;
55146;SDS011;41039;49.830;23.988;2024-02-04T01:56:52;2.70;;;1.58;;
55146;SDS011;41039;49.830;23.988;2024-02-04T01:59:18;2.65;;;1.60;;
55146;SDS011;41039;49.830;23.988;2024-02-04T02:01:44;2.33;;;1.50;;
55146;SDS011;41039;49.830;23.988;2024-02-04T02:04:10;2.30;;;1.33;;
55146;SDS011;41039;49.830;23.988;2024-02-04T02:06:35;2.47;;;1.67;;
55146;SDS011;41039;49.830;23.988;2024-02-04T02:09:06;2.17;;;1.10;;
55146;SDS011;41039;49.830;23.988;2024-02-04T02:11:42;2.47;;;1.58;;
55146;SDS011;41039;49.830;23.988;2024-02-04T02:14:13;2.28;;;1.23;;
55146;SDS011;41039;49.830;23.988;2024-02-04T02:16:39;2.35;;;1.10;;
55146;SDS011;41039;49.830;23.988;2024-02-04T02:19:11;2.10;;;1.30;;
55146;SDS011;41039;49.830;23.988;2024-02-04T02:21:50;2.72;;;1.20;;
55146;SDS011;41039;49.830;23.988;2024-02-04T02:26:49;2.33;;;1.30;;
55146;SDS011;41039;49.830;23.988;2024-02-04T02:29:14;2.00;;;1.13;;
55146;SDS011;41039;49.830;23.988;2024-02-04T02:31:40;2.03;;;1.23;;
55146;SDS011;41039;49.830;23.988;2024-02-04T02:34:05;2.53;;;1.52;;
55146;SDS011;41039;49.830;23.988;2024-02-04T02:36:34;2.03;;;1.02;;
55146;SDS011;41039;49.830;23.988;2024-02-04T02:39:15;2.10;;;1.10;;
55146;SDS011;41039;49.830;23.988;2024-02-04T02:41:42;2.30;;;1.25;;
55146;SDS011;41039;49.830;23.988;2024-02-04T02:44:08;1.67;;;0.98;;
55146;SDS011;41039;49.830;23.988;2024-02-04T02:46:33;2.55;;;1.23;;
55146;SDS011;41039;49.830;23.988;2024-02-04T02:48:59;2.00;;;1.17;;
55146;SDS011;41039;49.830;23.988;2024-02-04T02:51:24;2.53;;;1.10;;
55146;SDS011;41039;49.830;23.988;2024-02-04T02:53:49;2.15;;;1.20;;
55146;SDS011;41039;49.830;23.988;2024-02-04T02:56:15;2.53;;;1.30;;
55146;SDS011;41039;49.830;23.988;2024-02-04T02:58:40;3.07;;;1.10;;
55146;SDS011;41039;49.830;23.988;2024-02-04T03:01:05;1.93;;;1.13;;
55146;SDS011;41039;49.830;23.988;2024-02-04T03:03:30;2.25;;;1.08;;
55146;SDS011;41039;49.830;23.988;2024-02-04T03:05:56;1.77;;;1.10;;
55146;SDS011;41039;49.830;23.988;2024-02-04T03:08:21;2.60;;;1.20;;
55146;SDS011;41039;49.830;23.988;2024-02-04T03:10:46;1.95;;;1.17;;
55146;SDS011;41039;49.830;23.988;2024-02-04T03:13:11;1.45;;;1.05;;
55146;SDS011;41039;49.830;23.988;2024-02-04T03:15:37;2.00;;;1.17;;
55146;SDS011;41039;49.830;23.988;2024-02-04T03:18:02;2.07;;;1.00;;
55146;SDS011;41039;49.830;23.988;2024-02-04T03:20:27;2.25;;;0.93;;
55146;SDS011;41039;49.830;23.988;2024-02-04T03:22:54;2.30;;;1.27;;
55146;SDS011;41039;49.830;23.988;2024-02-04T03:25:20;2.22;;;1.20;;
55146;SDS011;41039;49.830;23.988;2024-02-04T03:27:45;2.22;;;1.10;;
55146;SDS011;41039;49.830;23.988;2024-02-04T03:30:10;2.75;;;1.50;;
55146;SDS011;41039;49.830;23.988;2024-02-04T03:32:35;1.70;;;1.00;;
55146;SDS011;41039;49.830;23.988;2024-02-04T03:35:01;1.60;;;1.00;;
55146;SDS011;41039;49.830;23.988;2024-02-04T03:37:26;2.38;;;1.15;;
55146;SDS011;41039;49.830;23.988;2024-02-04T03:39:51;2.67;;;1.35;;
55146;SDS011;41039;49.830;23.988;2024-02-04T03:42:17;2.20;;;1.10;;
55146;SDS011;41039;49.830;23.988;2024-02-04T03:44:43;2.10;;;1.15;;
55146;SDS011;41039;49.830;23.988;2024-02-04T03:47:08;2.53;;;1.13;;
55146;SDS011;41039;49.830;23.988;2024-02-04T03:49:33;1.93;;;0.90;;
55146;SDS011;41039;49.830;23.988;2024-02-04T03:51:59;1.70;;;1.00;;
55146;SDS011;41039;49.830;23.988;2024-02-04T03:54:24;2.03;;;1.20;;
55146;SDS011;41039;49.830;23.988;2024-02-04T03:56:49;2.33;;;1.20;;
55146;SDS011;41039;49.830;23.988;2024-02-04T03:59:14;2.13;;;1.10;;
55146;SDS011;41039;49.830;23.988;2024-02-04T04:01:40;2.00;;;1.03;;
55146;SDS011;41039;49.830;23.988;2024-02-04T04:04:05;1.83;;;1.03;;
55146;SDS011;41039;49.830;23.988;2024-02-04T04:06:30;3.03;;;1.17;;
55146;SDS011;41039;49.830;23.988;2024-02-04T04:08:55;1.90;;;1.10;;
55146;SDS011;41039;49.830;23.988;2024-02-04T04:11:23;1.80;;;1.00;;
55146;SDS011;41039;49.830;23.988;2024-02-04T04:13:49;2.50;;;1.10;;
55146;SDS011;41039;49.830;23.988;2024-02-04T04:16:14;1.33;;;0.80;;
55146;SDS011;41039;49.830;23.988;2024-02-04T04:18:39;1.83;;;1.00;;
55146;SDS011;41039;49.830;23.988;2024-02-04T04:21:04;1.80;;;1.10;;
55146;SDS011;41039;49.830;23.988;2024-02-04T04:23:30;2.53;;;1.00;;
55146;SDS011;41039;49.830;23.988;2024-02-04T04:25:55;1.80;;;0.83;;
55146;SDS011;41039;49.830;23.988;2024-02-04T04:28:20;1.73;;;0.90;;
55146;SDS011;41039;49.830;23.988;2024-02-04T04:30:45;1.27;;;0.77;;
55146;SDS011;41039;49.830;23.988;2024-02-04T04:33:10;1.40;;;0.70;;
55146;SDS011;41039;49.830;23.988;2024-02-04T04:35:37;1.65;;;0.90;;
55146;SDS011;41039;49.830;23.988;2024-02-04T04:38:02;2.28;;;0.90;;
55146;SDS011;41039;49.830;23.988;2024-02-04T04:40:27;1.40;;;0.80;;
55146;SDS011;41039;49.830;23.988;2024-02-04T04:42:52;1.52;;;0.73;;
55146;SDS011;41039;49.830;23.988;2024-02-04T04:45:18;1.73;;;0.73;;
55146;SDS011;41039;49.830;23.988;2024-02-04T04:47:43;0.77;;;0.50;;
55146;SDS011;41039;49.830;23.988;2024-02-04T04:50:08;1.77;;;0.80;;
55146;SDS011;41039;49.830;23.988;2024-02-04T04:52:33;1.40;;;0.80;;
55146;SDS011;41039;49.830;23.988;2024-02-04T04:54:59;1.50;;;0.80;;
55146;SDS011;41039;49.830;23.988;2024-02-04T04:57:24;1.90;;;0.97;;
55146;SDS011;41039;49.830;23.988;2024-02-04T04:59:49;2.25;;;0.82;;
55146;SDS011;41039;49.830;23.988;2024-02-04T05:02:15;1.55;;;0.90;;
55146;SDS011;41039;49.830;23.988;2024-02-04T05:04:43;2.60;;;0.93;;
55146;SDS011;41039;49.830;23.988;2024-02-04T05:07:09;1.73;;;0.80;;
55146;SDS011;41039;49.830;23.988;2024-02-04T05:09:35;2.03;;;1.10;;
55146;SDS011;41039;49.830;23.988;2024-02-04T05:12:01;1.80;;;0.90;;
55146;SDS011;41039;49.830;23.988;2024-02-04T05:14:27;1.95;;;1.00;;
55146;SDS011;41039;49.830;23.988;2024-02-04T05:16:52;1.67;;;0.80;;
55146;SDS011;41039;49.830;23.988;2024-02-04T05:19:17;1.70;;;0.80;;
55146;SDS011;41039;49.830;23.988;2024-02-04T05:21:42;1.73;;;0.70;;
55146;SDS011;41039;49.830;23.988;2024-02-04T05:24:08;2.15;;;0.90;;
55146;SDS011;41039;49.830;23.988;2024-02-04T05:26:33;1.40;;;0.87;;
55146;SDS011;41039;49.830;23.988;2024-02-04T05:28:58;1.65;;;0.70;;
55146;SDS011;41039;49.830;23.988;2024-02-04T05:31:23;1.70;;;0.80;;
55146;SDS011;41039;49.830;23.988;2024-02-04T05:33:50;1.17;;;0.70;;
55146;SDS011;41039;49.830;23.988;2024-02-04T05:36:16;0.95;;;0.52;;
55146;SDS011;41039;49.830;23.988;2024-02-04T05:38:43;1.03;;;0.63;;
55146;SDS011;41039;49.830;23.988;2024-02-04T05:41:08;1.33;;;0.73;;
55146;SDS011;41039;49.830;23.988;2024-02-04T05:43:34;2.17;;;0.63;;
55146;SDS011;41039;49.830;23.988;2024-02-04T05:45:59;1.23;;;0.63;;
55146;SDS011;41039;49.830;23.988;2024-02-04T05:48:24;1.00;;;0.50;;
55146;SDS011;41039;49.830;23.988;2024-02-04T05:50:49;1.58;;;0.80;;
55146;SDS011;41039;49.830;23.988;2024-02-04T05:53:15;1.48;;;0.68;;
55146;SDS011;41039;49.830;23.988;2024-02-04T05:55:40;1.77;;;0.80;;
55146;SDS011;41039;49.830;23.988;2024-02-04T05:58:05;1.67;;;0.70;;
55146;SDS011;41039;49.830;23.988;2024-02-04T06:00:30;1.90;;;0.93;;
55146;SDS011;41039;49.830;23.988;2024-02-04T06:02:55;1.98;;;0.90;;
55146;SDS011;41039;49.830;23.988;2024-02-04T06:05:21;1.70;;;0.93;;
55146;SDS011;41039;49.830;23.988;2024-02-04T06:07:46;2.63;;;0.87;;
55146;SDS011;41039;49.830;23.988;2024-02-04T06:10:11;1.33;;;0.70;;
55146;SDS011;41039;49.830;23.988;2024-02-04T06:12:37;1.58;;;0.82;;
55146;SDS011;41039;49.830;23.988;2024-02-04T06:15:05;1.50;;;0.90;;
55146;SDS011;41039;49.830;23.988;2024-02-04T06:17:31;1.20;;;0.70;;
55146;SDS011;41039;49.830;23.988;2024-02-04T06:19:56;1.05;;;0.60;;
55146;SDS011;41039;49.830;23.988;2024-02-04T06:22:22;1.10;;;0.70;;
55146;SDS011;41039;49.830;23.988;2024-02-04T06:24:47;1.50;;;0.60;;
55146;SDS011;41039;49.830;23.988;2024-02-04T06:27:12;1.50;;;1.00;;
55146;SDS011;41039;49.830;23.988;2024-02-04T06:29:37;1.30;;;0.60;;
55146;SDS011;41039;49.830;23.988;2024-02-04T06:32:04;1.63;;;0.73;;
55146;SDS011;41039;49.830;23.988;2024-02-04T06:34:30;1.48;;;0.77;;
55146;SDS011;41039;49.830;23.988;2024-02-04T06:36:55;1.48;;;0.80;;
55146;SDS011;41039;49.830;23.988;2024-02-04T06:39:20;1.03;;;0.77;;
55146;SDS011;41039;49.830;23.988;2024-02-04T06:41:45;1.50;;;0.67;;
55146;SDS011;41039;49.830;23.988;2024-02-04T06:44:11;1.07;;;0.60;;
55146;SDS011;41039;49.830;23.988;2024-02-04T06:46:36;1.52;;;0.77;;
55146;SDS011;41039;49.830;23.988;2024-02-04T06:49:01;1.70;;;0.80;;
55146;SDS011;41039;49.830;23.988;2024-02-04T06:51:27;1.52;;;0.60;;
55146;SDS011;41039;49.830;23.988;2024-02-04T06:53:52;3.88;;;0.60;;
55146;SDS011;41039;49.830;23.988;2024-02-04T06:56:17;2.35;;;0.70;;
55146;SDS011;41039;49.830;23.988;2024-02-04T06:58:42;1.13;;;0.60;;
55146;SDS011;41039;49.830;23.988;2024-02-04T07:01:08;1.25;;;0.60;;
55146;SDS011;41039;49.830;23.988;2024-02-04T07:03:34;1.13;;;0.70;;
55146;SDS011;41039;49.830;23.988;2024-02-04T07:05:59;1.35;;;0.68;;
55146;SDS011;41039;49.830;23.988;2024-02-04T07:08:25;1.00;;;0.52;;
55146;SDS011;41039;49.830;23.988;2024-02-04T07:10:50;1.75;;;0.80;;
55146;SDS011;41039;49.830;23.988;2024-02-04T07:13:15;1.40;;;0.75;;
55146;SDS011;41039;49.830;23.988;2024-02-04T07:15:41;1.38;;;0.80;;
55146;SDS011;41039;49.830;23.988;2024-02-04T07:18:06;1.80;;;0.80;;
55146;SDS011;41039;49.830;23.988;2024-02-04T07:20:31;1.02;;;0.52;;
55146;SDS011;41039;49.830;23.988;2024-02-04T07:22:57;1.40;;;0.70;;
55146;SDS011;41039;49.830;23.988;2024-02-04T07:25:22;1.40;;;0.80;;
55146;SDS011;41039;49.830;23.988;2024-02-04T07:27:47;2.00;;;0.95;;
55146;SDS011;41039;49.830;23.988;2024-02-04T07:30:13;1.73;;;0.95;;
55146;SDS011;41039;49.830;23.988;2024-02-04T07:32:38;0.95;;;0.60;;
55146;SDS011;41039;49.830;23.988;2024-02-04T07:35:03;1.67;;;0.73;;
55146;SDS011;41039;49.830;23.988;2024-02-04T07:37:29;1.58;;;0.68;;
55146;SDS011;41039;49.830;23.988;2024-02-04T07:39:54;1.63;;;0.90;;
55146;SDS011;41039;49.830;23.988;2024-02-04T07:42:19;1.87;;;0.77;;
55146;SDS011;41039;49.830;23.988;2024-02-04T07:44:44;1.98;;;1.10;;
55146;SDS011;41039;49.830;23.988;2024-02-04T07:47:09;1.47;;;0.70;;
55146;SDS011;41039;49.830;23.988;2024-02-04T07:49:35;0.80;;;0.60;;
55146;SDS011;41039;49.830;23.988;2024-02-04T07:52:00;1.53;;;0.70;;
55146;SDS011;41039;49.830;23.988;2024-02-04T07:54:25;1.00;;;0.55;;
55146;SDS011;41039;49.830;23.988;2024-02-04T07:56:50;1.00;;;0.60;;
55146;SDS011;41039;49.830;23.988;2024-02-04T07:59:16;1.40;;;0.67;;
55146;SDS011;41039;49.830;23.988;2024-02-04T08:01:41;1.03;;;0.60;;
55146;SDS011;41039;49.830;23.988;2024-02-04T08:04:06;2.07;;;0.97;;
55146;SDS011;41039;49.830;23.988;2024-02-04T08:06:33;1.40;;;0.70;;
55146;SDS011;41039;49.830;23.988;2024-02-04T08:08:59;1.58;;;0.70;;
55146;SDS011;41039;49.830;23.988;2024-02-04T08:11:25;1.58;;;0.80;;
55146;SDS011;41039;49.830;23.988;2024-02-04T08:13:50;1.77;;;0.80;;
55146;SDS011;41039;49.830;23.988;2024-02-04T08:16:15;3.63;;;0.90;;
55146;SDS011;41039;49.830;23.988;2024-02-04T08:18:41;1.80;;;0.80;;
55146;SDS011;41039;49.830;23.988;2024-02-04T08:21:06;3.15;;;0.63;;
55146;SDS011;41039;49.830;23.988;2024-02-04T08:23:32;1.30;;;0.65;;
55146;SDS011;41039;49.830;23.988;2024-02-04T08:25:57;2.33;;;0.80;;
55146;SDS011;41039;49.830;23.988;2024-02-04T08:28:23;2.22;;;0.90;;
55146;SDS011;41039;49.830;23.988;2024-02-04T08:30:48;3.60;;;1.10;;
55146;SDS011;41039;49.830;23.988;2024-02-04T08:33:14;2.83;;;0.90;;
55146;SDS011;41039;49.830;23.988;2024-02-04T08:35:39;1.80;;;0.70;;
55146;SDS011;41039;49.830;23.988;2024-02-04T08:38:04;2.77;;;1.00;;
55146;SDS011;41039;49.830;23.988;2024-02-04T08:40:29;3.07;;;1.17;;
55146;SDS011;41039;49.830;23.988;2024-02-04T08:42:54;1.75;;;0.73;;
55146;SDS011;41039;49.830;23.988;2024-02-04T08:45:20;4.27;;;1.00;;
55146;SDS011;41039;49.830;23.988;2024-02-04T08:47:45;2.07;;;0.93;;
55146;SDS011;41039;49.830;23.988;2024-02-04T08:50:10;1.77;;;0.87;;
55146;SDS011;41039;49.830;23.988;2024-02-04T08:52:37;2.08;;;0.80;;
55146;SDS011;41039;49.830;23.988;2024-02-04T08:55:02;1.30;;;0.60;;
55146;SDS011;41039;49.830;23.988;2024-02-04T08:57:29;5.05;;;1.17;;
55146;SDS011;41039;49.830;23.988;2024-02-04T08:59:54;1.40;;;0.60;;
55146;SDS011;41039;49.830;23.988;2024-02-04T09:02:19;2.63;;;0.70;;
55146;SDS011;41039;49.830;23.988;2024-02-04T09:04:44;1.42;;;0.50;;
55146;SDS011;41039;49.830;23.988;2024-02-04T09:07:10;1.30;;;0.80;;
55146;SDS011;41039;49.830;23.988;2024-02-04T09:09:35;1.80;;;0.90;;
55146;SDS011;41039;49.830;23.988;2024-02-04T09:12:00;1.40;;;0.70;;
55146;SDS011;41039;49.830;23.988;2024-02-04T09:14:25;3.13;;;0.90;;
55146;SDS011;41039;49.830;23.988;2024-02-04T09:16:51;1.83;;;0.80;;
55146;SDS011;41039;49.830;23.988;2024-02-04T09:19:16;2.40;;;1.03;;
55146;SDS011;41039;49.830;23.988;2024-02-04T09:21:41;1.80;;;0.70;;
55146;SDS011;41039;49.830;23.988;2024-02-04T09:24:07;2.53;;;0.98;;
55146;SDS011;41039;49.830;23.988;2024-02-04T09:26:32;1.97;;;0.90;;
55146;SDS011;41039;49.830;23.988;2024-02-04T09:28:57;1.85;;;0.80;;
55146;SDS011;41039;49.830;23.988;2024-02-04T09:31:23;3.75;;;1.23;;
55146;SDS011;41039;49.830;23.988;2024-02-04T09:33:48;1.60;;;0.80;;
55146;SDS011;41039;49.830;23.988;2024-02-04T09:36:13;1.93;;;1.03;;
55146;SDS011;41039;49.830;23.988;2024-02-04T09:38:39;3.13;;;0.80;;
55146;SDS011;41039;49.830;23.988;2024-02-04T09:41:05;2.30;;;0.90;;
55146;SDS011;41039;49.830;23.988;2024-02-04T09:43:31;2.00;;;0.80;;
55146;SDS011;41039;49.830;23.988;2024-02-04T09:45:57;2.53;;;0.80;;
55146;SDS011;41039;49.830;23.988;2024-02-04T09:48:22;2.25;;;0.70;;
55146;SDS011;41039;49.830;23.988;2024-02-04T09:50:48;4.10;;;1.13;;
55146;SDS011;41039;49.830;23.988;2024-02-04T09:53:15;2.22;;;0.80;;
55146;SDS011;41039;49.830;23.988;2024-02-04T09:55:44;3.92;;;1.30;;
55146;SDS011;41039;49.830;23.988;2024-02-04T09:58:10;2.38;;;0.93;;
55146;SDS011;41039;49.830;23.988;2024-02-04T10:00:35;2.30;;;1.00;;
55146;SDS011;41039;49.830;23.988;2024-02-04T10:03:03;1.98;;;0.70;;
55146;SDS011;41039;49.830;23.988;2024-02-04T10:05:29;2.20;;;0.90;;
55146;SDS011;41039;49.830;23.988;2024-02-04T10:07:54;1.53;;;0.60;;
55146;SDS011;41039;49.830;23.988;2024-02-04T10:10:19;1.77;;;0.73;;
55146;SDS011;41039;49.830;23.988;2024-02-04T10:12:45;2.45;;;0.80;;
55146;SDS011;41039;49.830;23.988;2024-02-04T10:15:10;2.00;;;0.90;;
55146;SDS011;41039;49.830;23.988;2024-02-04T10:17:36;2.08;;;0.68;;
55146;SDS011;41039;49.830;23.988;2024-02-04T10:20:01;2.80;;;0.98;;
55146;SDS011;41039;49.830;23.988;2024-02-04T10:22:27;1.75;;;0.80;;
55146;SDS011;41039;49.830;23.988;2024-02-04T10:24:53;2.92;;;1.00;;
55146;SDS011;41039;49.830;23.988;2024-02-04T10:27:19;3.50;;;1.13;;
55146;SDS011;41039;49.830;23.988;2024-02-04T10:29:44;2.45;;;0.90;;
55146;SDS011;41039;49.830;23.988;2024-02-04T10:32:09;1.63;;;0.80;;
55146;SDS011;41039;49.830;23.988;2024-02-04T10:34:38;1.85;;;0.80;;
55146;SDS011;41039;49.830;23.988;2024-02-04T10:37:03;2.00;;;0.77;;
55146;SDS011;41039;49.830;23.988;2024-02-04T10:39:29;2.08;;;0.95;;
55146;SDS011;41039;49.830;23.988;2024-02-04T10:41:54;1.30;;;0.73;;
55146;SDS011;41039;49.830;23.988;2024-02-04T10:44:21;1.33;;;0.70;;
55146;SDS011;41039;49.830;23.988;2024-02-04T10:46:47;1.33;;;0.60;;
55146;SDS011;41039;49.830;23.988;2024-02-04T10:49:14;2.40;;;0.98;;
55146;SDS011;41039;49.830;23.988;2024-02-04T10:51:40;1.88;;;0.77;;
55146;SDS011;41039;49.830;23.988;2024-02-04T10:54:06;1.92;;;0.80;;
55146;SDS011;41039;49.830;23.988;2024-02-04T10:56:32;2.05;;;0.82;;
55146;SDS011;41039;49.830;23.988;2024-02-04T10:58:59;2.13;;;0.75;;
55146;SDS011;41039;49.830;23.988;2024-02-04T11:01:25;1.63;;;0.73;;
55146;SDS011;41039;49.830;23.988;2024-02-04T11:03:51;1.60;;;0.73;;
55146;SDS011;41039;49.830;23.988;2024-02-04T11:06:17;2.60;;;0.60;;
55146;SDS011;41039;49.830;23.988;2024-02-04T11:08:43;1.85;;;1.00;;
55146;SDS011;41039;49.830;23.988;2024-02-04T11:11:08;2.60;;;0.70;;
55146;SDS011;41039;49.830;23.988;2024-02-04T11:13:34;1.45;;;0.70;;
55146;SDS011;41039;49.830;23.988;2024-02-04T11:16:01;2.00;;;0.70;;
55146;SDS011;41039;49.830;23.988;2024-02-04T11:26:16;3.10;;;0.80;;
55146;SDS011;41039;49.830;23.988;2024-02-04T11:28:42;1.98;;;0.80;;
55146;SDS011;41039;49.830;23.988;2024-02-04T11:31:17;1.70;;;0.57;;
55146;SDS011;41039;49.830;23.988;2024-02-04T11:33:42;2.13;;;0.93;;
55146;SDS011;41039;49.830;23.988;2024-02-04T11:36:11;2.45;;;1.00;;
55146;SDS011;41039;49.830;23.988;2024-02-04T11:38:37;3.13;;;1.20;;
55146;SDS011;41039;49.830;23.988;2024-02-04T11:41:03;3.55;;;1.27;;
55146;SDS011;41039;49.830;23.988;2024-02-04T11:43:28;2.20;;;1.00;;
55146;SDS011;41039;49.830;23.988;2024-02-04T11:45:54;2.42;;;1.00;;
55146;SDS011;41039;49.830;23.988;2024-02-04T11:48:19;2.33;;;1.05;;
55146;SDS011;41039;49.830;23.988;2024-02-04T11:50:51;4.05;;;1.20;;
55146;SDS011;41039;49.830;23.988;2024-02-04T11:53:17;2.95;;;1.20;;
55146;SDS011;41039;49.830;23.988;2024-02-04T11:55:43;2.85;;;0.75;;
55146;SDS011;41039;49.830;23.988;2024-02-04T11:58:10;3.05;;;1.10;;
55146;SDS011;41039;49.830;23.988;2024-02-04T12:00:36;3.22;;;0.90;;
55146;SDS011;41039;49.830;23.988;2024-02-04T12:03:05;4.13;;;1.02;;
55146;SDS011;41039;49.830;23.988;2024-02-04T12:05:36;4.03;;;1.20;;
55146;SDS011;41039;49.830;23.988;2024-02-04T12:08:03;2.60;;;1.00;;
55146;SDS011;41039;49.830;23.988;2024-02-04T12:10:29;2.40;;;1.20;;
55146;SDS011;41039;49.830;23.988;2024-02-04T12:12:55;2.03;;;1.00;;
55146;SDS011;41039;49.830;23.988;2024-02-04T12:15:21;2.58;;;1.30;;
55146;SDS011;41039;49.830;23.988;2024-02-04T12:17:46;2.83;;;1.13;;
55146;SDS011;41039;49.830;23.988;2024-02-04T12:20:11;2.88;;;0.90;;
55146;SDS011;41039;49.830;23.988;2024-02-04T12:22:37;3.53;;;1.23;;
55146;SDS011;41039;49.830;23.988;2024-02-04T12:25:02;2.50;;;1.10;;
55146;SDS011;41039;49.830;23.988;2024-02-04T12:27:28;2.83;;;1.20;;
55146;SDS011;41039;49.830;23.988;2024-02-04T12:29:53;2.72;;;1.10;;
55146;SDS011;41039;49.830;23.988;2024-02-04T12:32:25;2.35;;;1.00;;
55146;SDS011;41039;49.830;23.988;2024-02-04T12:34:51;2.03;;;1.08;;
55146;SDS011;41039;49.830;23.988;2024-02-04T12:37:21;3.67;;;1.20;;
55146;SDS011;41039;49.830;23.988;2024-02-04T12:39:47;2.50;;;1.05;;
55146;SDS011;41039;49.830;23.988;2024-02-04T12:42:15;2.75;;;1.20;;
55146;SDS011;41039;49.830;23.988;2024-02-04T12:44:45;3.75;;;1.15;;
55146;SDS011;41039;49.830;23.988;2024-02-04T12:47:11;3.50;;;1.20;;
55146;SDS011;41039;49.830;23.988;2024-02-04T12:49:36;2.63;;;1.20;;
55146;SDS011;41039;49.830;23.988;2024-02-04T12:52:05;3.13;;;0.90;;
55146;SDS011;41039;49.830;23.988;2024-02-04T12:54:30;2.03;;;0.98;;
55146;SDS011;41039;49.830;23.988;2024-02-04T12:56:56;2.90;;;1.20;;
55146;SDS011;41039;49.830;23.988;2024-02-04T12:59:28;2.00;;;0.93;;
55146;SDS011;41039;49.830;23.988;2024-02-04T13:01:57;2.33;;;1.10;;
55146;SDS011;41039;49.830;23.988;2024-02-04T13:04:23;1.73;;;1.00;;
55146;SDS011;41039;49.830;23.988;2024-02-04T13:06:48;3.28;;;1.27;;
55146;SDS011;41039;49.830;23.988;2024-02-04T13:09:14;2.75;;;1.30;;
55146;SDS011;41039;49.830;23.988;2024-02-04T13:11:40;2.88;;;1.15;;
55146;SDS011;41039;49.830;23.988;2024-02-04T13:14:05;2.17;;;1.20;;
55146;SDS011;41039;49.830;23.988;2024-02-04T13:16:31;2.10;;;1.00;;
55146;SDS011;41039;49.830;23.988;2024-02-04T13:18:56;3.45;;;1.38;;
55146;SDS011;41039;49.830;23.988;2024-02-04T13:21:22;4.55;;;1.30;;
55146;SDS011;41039;49.830;23.988;2024-02-04T13:23:47;1.90;;;0.87;;
55146;SDS011;41039;49.830;23.988;2024-02-04T13:26:13;2.63;;;1.00;;
55146;SDS011;41039;49.830;23.988;2024-02-04T13:28:38;2.43;;;1.17;;
55146;SDS011;41039;49.830;23.988;2024-02-04T13:31:04;2.37;;;1.03;;
55146;SDS011;41039;49.830;23.988;2024-02-04T13:33:29;3.88;;;1.10;;
55146;SDS011;41039;49.830;23.988;2024-02-04T13:35:54;2.10;;;0.93;;
55146;SDS011;41039;49.830;23.988;2024-02-04T13:38:20;3.70;;;1.10;;
55146;SDS011;41039;49.830;23.988;2024-02-04T13:40:45;1.83;;;1.13;;
55146;SDS011;41039;49.830;23.988;2024-02-04T13:43:11;3.45;;;1.10;;
55146;SDS011;41039;49.830;23.988;2024-02-04T13:45:37;3.13;;;1.33;;
55146;SDS011;41039;49.830;23.988;2024-02-04T13:48:02;2.77;;;1.00;;
55146;SDS011;41039;49.830;23.988;2024-02-04T13:50:27;3.20;;;0.98;;
55146;SDS011;41039;49.830;23.988;2024-02-04T13:52:52;2.22;;;0.95;;
55146;SDS011;41039;49.830;23.988;2024-02-04T13:55:18;2.75;;;0.98;;
55146;SDS011;41039;49.830;23.988;2024-02-04T13:57:43;2.10;;;1.10;;
55146;SDS011;41039;49.830;23.988;2024-02-04T14:00:08;2.80;;;1.10;;
55146;SDS011;41039;49.830;23.988;2024-02-04T14:02:34;2.25;;;0.93;;
55146;SDS011;41039;49.830;23.988;2024-02-04T14:04:59;2.65;;;1.10;;
55146;SDS011;41039;49.830;23.988;2024-02-04T14:07:25;2.75;;;1.27;;
55146;SDS011;41039;49.830;23.988;2024-02-04T14:09:50;2.10;;;0.80;;
55146;SDS011;41039;49.830;23.988;2024-02-04T14:12:16;2.22;;;1.00;;
55146;SDS011;41039;49.830;23.988;2024-02-04T14:14:41;2.47;;;1.10;;
55146;SDS011;41039;49.830;23.988;2024-02-04T14:17:06;2.15;;;0.98;;
55146;SDS011;41039;49.830;23.988;2024-02-04T14:19:31;1.92;;;0.98;;
55146;SDS011;41039;49.830;23.988;2024-02-04T14:21:57;2.70;;;1.30;;
55146;SDS011;41039;49.830;23.988;2024-02-04T14:24:22;2.87;;;1.20;;
55146;SDS011;41039;49.830;23.988;2024-02-04T14:26:47;3.00;;;1.20;;
55146;SDS011;41039;49.830;23.988;2024-02-04T14:29:13;1.90;;;0.95;;
55146;SDS011;41039;49.830;23.988;2024-02-04T14:31:38;3.25;;;1.40;;
55146;SDS011;41039;49.830;23.988;2024-02-04T14:34:03;2.15;;;1.10;;